sensor_id;sensor_type;location;lat;lon;timestamp;P1;durP1;ratioP1;P2;durP2;ratioP2
59972;SDS011;55298;-36.624;-64.282;2023-04-24T00:01:04;9.23;;;6.32;;
59972;SDS011;55298;-36.624;-64.282;2023-04-24T00:03:33;10.70;;;7.07;;
59972;SDS011;55298;-36.624;-64.282;2023-04-24T00:06:01;13.80;;;7.97;;
59972;SDS011;55298;-36.624;-64.282;2023-04-24T00:08:29;20.48;;;7.63;;
59972;SDS011;55298;-36.624;-64.282;2023-04-24T00:10:57;11.70;;;6.75;;
59972;SDS011;55298;-36.624;-64.282;2023-04-24T00:13:24;19.25;;;9.80;;
59972;SDS011;55298;-36.624;-64.282;2023-04-24T00:15:55;16.77;;;9.95;;
59972;SDS011;55298;-36.624;-64.282;2023-04-24T00:18:23;17.70;;;9.60;;
59972;SDS011;55298;-36.624;-64.282;2023-04-24T00:20:51;13.25;;;8.80;;
59972;SDS011;55298;-36.624;-64.282;2023-04-24T00:23:19;16.80;;;9.32;;
59972;SDS011;55298;-36.624;-64.282;2023-04-24T00:25:46;19.50;;;9.95;;
59972;SDS011;55298;-36.624;-64.282;2023-04-24T00:28:14;18.55;;;10.52;;
59972;SDS011;55298;-36.624;-64.282;2023-04-24T00:30:42;16.70;;;10.55;;
59972;SDS011;55298;-36.624;-64.282;2023-04-24T00:33:10;11.60;;;6.72;;
59972;SDS011;55298;-36.624;-64.282;2023-04-24T00:35:39;10.55;;;5.93;;
59972;SDS011;55298;-36.624;-64.282;2023-04-24T00:38:06;9.27;;;6.18;;
59972;SDS011;55298;-36.624;-64.282;2023-04-24T00:40:34;11.25;;;6.10;;
59972;SDS011;55298;-36.624;-64.282;2023-04-24T00:43:03;10.77;;;5.95;;
59972;SDS011;55298;-36.624;-64.282;2023-04-24T00:45:32;10.85;;;6.20;;
59972;SDS011;55298;-36.624;-64.282;2023-04-24T00:48:00;6.82;;;5.65;;
59972;SDS011;55298;-36.624;-64.282;2023-04-24T00:50:28;7.78;;;5.93;;
59972;SDS011;55298;-36.624;-64.282;2023-04-24T00:52:56;6.65;;;5.80;;
59972;SDS011;55298;-36.624;-64.282;2023-04-24T00:55:24;8.52;;;6.10;;
59972;SDS011;55298;-36.624;-64.282;2023-04-24T00:57:54;8.18;;;6.20;;
59972;SDS011;55298;-36.624;-64.282;2023-04-24T01:00:22;10.82;;;5.97;;
59972;SDS011;55298;-36.624;-64.282;2023-04-24T01:02:51;9.82;;;6.30;;
59972;SDS011;55298;-36.624;-64.282;2023-04-24T01:05:21;11.00;;;6.75;;
59972;SDS011;55298;-36.624;-64.282;2023-04-24T01:07:49;13.10;;;6.60;;
59972;SDS011;55298;-36.624;-64.282;2023-04-24T01:10:17;9.48;;;6.30;;
59972;SDS011;55298;-36.624;-64.282;2023-04-24T01:12:46;7.47;;;6.10;;
59972;SDS011;55298;-36.624;-64.282;2023-04-24T01:15:14;7.82;;;6.20;;
59972;SDS011;55298;-36.624;-64.282;2023-04-24T01:17:42;10.32;;;7.05;;
59972;SDS011;55298;-36.624;-64.282;2023-04-24T01:20:16;10.45;;;6.30;;
59972;SDS011;55298;-36.624;-64.282;2023-04-24T01:22:46;8.30;;;6.30;;
59972;SDS011;55298;-36.624;-64.282;2023-04-24T01:25:14;9.68;;;6.45;;
59972;SDS011;55298;-36.624;-64.282;2023-04-24T01:27:48;11.07;;;7.15;;
59972;SDS011;55298;-36.624;-64.282;2023-04-24T01:30:18;7.45;;;6.45;;
59972;SDS011;55298;-36.624;-64.282;2023-04-24T01:32:45;8.52;;;6.85;;
59972;SDS011;55298;-36.624;-64.282;2023-04-24T01:35:14;8.65;;;7.35;;
59972;SDS011;55298;-36.624;-64.282;2023-04-24T01:37:45;8.10;;;7.05;;
59972;SDS011;55298;-36.624;-64.282;2023-04-24T01:40:28;9.95;;;6.70;;
59972;SDS011;55298;-36.624;-64.282;2023-04-24T01:42:58;12.00;;;6.78;;
59972;SDS011;55298;-36.624;-64.282;2023-04-24T01:45:33;8.85;;;6.80;;
59972;SDS011;55298;-36.624;-64.282;2023-04-24T01:48:03;9.65;;;6.60;;
59972;SDS011;55298;-36.624;-64.282;2023-04-24T01:50:31;7.05;;;6.35;;
59972;SDS011;55298;-36.624;-64.282;2023-04-24T01:53:02;9.35;;;6.80;;
59972;SDS011;55298;-36.624;-64.282;2023-04-24T01:55:30;8.90;;;6.10;;
59972;SDS011;55298;-36.624;-64.282;2023-04-24T01:58:06;10.52;;;7.00;;
59972;SDS011;55298;-36.624;-64.282;2023-04-24T02:00:35;8.18;;;6.22;;
59972;SDS011;55298;-36.624;-64.282;2023-04-24T02:03:03;7.63;;;5.97;;
59972;SDS011;55298;-36.624;-64.282;2023-04-24T02:05:32;8.27;;;6.03;;
59972;SDS011;55298;-36.624;-64.282;2023-04-24T02:08:02;7.43;;;6.63;;
59972;SDS011;55298;-36.624;-64.282;2023-04-24T02:10:30;7.43;;;6.22;;
59972;SDS011;55298;-36.624;-64.282;2023-04-24T02:13:02;10.07;;;6.95;;
59972;SDS011;55298;-36.624;-64.282;2023-04-24T02:15:30;9.68;;;6.80;;
59972;SDS011;55298;-36.624;-64.282;2023-04-24T02:17:58;10.00;;;7.13;;
59972;SDS011;55298;-36.624;-64.282;2023-04-24T02:20:27;9.13;;;6.85;;
59972;SDS011;55298;-36.624;-64.282;2023-04-24T02:22:59;13.80;;;9.20;;
59972;SDS011;55298;-36.624;-64.282;2023-04-24T02:25:27;8.18;;;7.13;;
59972;SDS011;55298;-36.624;-64.282;2023-04-24T02:27:55;10.77;;;7.13;;
59972;SDS011;55298;-36.624;-64.282;2023-04-24T02:30:23;10.50;;;6.13;;
59972;SDS011;55298;-36.624;-64.282;2023-04-24T02:32:51;11.45;;;6.72;;
59972;SDS011;55298;-36.624;-64.282;2023-04-24T02:35:19;9.80;;;6.90;;
59972;SDS011;55298;-36.624;-64.282;2023-04-24T02:37:47;14.15;;;7.40;;
59972;SDS011;55298;-36.624;-64.282;2023-04-24T02:40:15;17.98;;;11.68;;
59972;SDS011;55298;-36.624;-64.282;2023-04-24T02:42:44;25.23;;;16.92;;
59972;SDS011;55298;-36.624;-64.282;2023-04-24T02:47:39;13.00;;;7.22;;
59972;SDS011;55298;-36.624;-64.282;2023-04-24T02:50:07;9.75;;;6.93;;
59972;SDS011;55298;-36.624;-64.282;2023-04-24T02:52:35;9.30;;;6.03;;
59972;SDS011;55298;-36.624;-64.282;2023-04-24T02:55:05;11.02;;;7.05;;
59972;SDS011;55298;-36.624;-64.282;2023-04-24T02:57:34;7.43;;;6.22;;
59972;SDS011;55298;-36.624;-64.282;2023-04-24T03:00:02;6.97;;;5.97;;
59972;SDS011;55298;-36.624;-64.282;2023-04-24T03:02:32;9.98;;;6.72;;
59972;SDS011;55298;-36.624;-64.282;2023-04-24T03:05:01;12.18;;;7.05;;
59972;SDS011;55298;-36.624;-64.282;2023-04-24T03:07:30;7.30;;;6.60;;
59972;SDS011;55298;-36.624;-64.282;2023-04-24T03:09:57;8.10;;;6.28;;
59972;SDS011;55298;-36.624;-64.282;2023-04-24T03:12:25;9.07;;;6.47;;
59972;SDS011;55298;-36.624;-64.282;2023-04-24T03:14:53;8.38;;;7.03;;
59972;SDS011;55298;-36.624;-64.282;2023-04-24T03:17:21;11.55;;;7.93;;
59972;SDS011;55298;-36.624;-64.282;2023-04-24T03:19:49;9.43;;;6.97;;
59972;SDS011;55298;-36.624;-64.282;2023-04-24T03:22:16;9.20;;;7.00;;
59972;SDS011;55298;-36.624;-64.282;2023-04-24T03:24:48;12.70;;;7.72;;
59972;SDS011;55298;-36.624;-64.282;2023-04-24T03:27:18;9.95;;;6.47;;
59972;SDS011;55298;-36.624;-64.282;2023-04-24T03:29:46;9.32;;;6.93;;
59972;SDS011;55298;-36.624;-64.282;2023-04-24T03:32:19;13.05;;;6.95;;
59972;SDS011;55298;-36.624;-64.282;2023-04-24T03:34:49;7.47;;;6.43;;
59972;SDS011;55298;-36.624;-64.282;2023-04-24T03:37:17;7.88;;;6.03;;
59972;SDS011;55298;-36.624;-64.282;2023-04-24T03:39:46;7.65;;;6.13;;
59972;SDS011;55298;-36.624;-64.282;2023-04-24T03:42:15;6.85;;;6.15;;
59972;SDS011;55298;-36.624;-64.282;2023-04-24T03:44:42;8.65;;;5.85;;
59972;SDS011;55298;-36.624;-64.282;2023-04-24T03:47:10;8.65;;;6.38;;
59972;SDS011;55298;-36.624;-64.282;2023-04-24T03:49:38;8.48;;;6.68;;
59972;SDS011;55298;-36.624;-64.282;2023-04-24T03:52:06;9.35;;;6.35;;
59972;SDS011;55298;-36.624;-64.282;2023-04-24T03:54:34;10.82;;;6.97;;
59972;SDS011;55298;-36.624;-64.282;2023-04-24T03:57:02;7.57;;;6.78;;
59972;SDS011;55298;-36.624;-64.282;2023-04-24T03:59:30;12.50;;;6.60;;
59972;SDS011;55298;-36.624;-64.282;2023-04-24T04:02:04;8.40;;;7.00;;
59972;SDS011;55298;-36.624;-64.282;2023-04-24T04:04:32;8.88;;;6.95;;
59972;SDS011;55298;-36.624;-64.282;2023-04-24T04:06:59;9.25;;;6.70;;
59972;SDS011;55298;-36.624;-64.282;2023-04-24T04:09:28;10.73;;;7.00;;
59972;SDS011;55298;-36.624;-64.282;2023-04-24T04:11:56;7.82;;;6.80;;
59972;SDS011;55298;-36.624;-64.282;2023-04-24T04:14:24;13.85;;;6.35;;
59972;SDS011;55298;-36.624;-64.282;2023-04-24T04:16:52;12.90;;;7.10;;
59972;SDS011;55298;-36.624;-64.282;2023-04-24T04:19:20;7.80;;;6.57;;
59972;SDS011;55298;-36.624;-64.282;2023-04-24T04:21:48;9.90;;;6.88;;
59972;SDS011;55298;-36.624;-64.282;2023-04-24T04:24:21;9.80;;;7.00;;
59972;SDS011;55298;-36.624;-64.282;2023-04-24T04:26:50;11.20;;;7.75;;
59972;SDS011;55298;-36.624;-64.282;2023-04-24T04:29:18;15.90;;;7.50;;
59972;SDS011;55298;-36.624;-64.282;2023-04-24T04:31:46;12.00;;;7.50;;
59972;SDS011;55298;-36.624;-64.282;2023-04-24T04:34:13;9.88;;;6.72;;
59972;SDS011;55298;-36.624;-64.282;2023-04-24T04:36:41;8.77;;;6.85;;
59972;SDS011;55298;-36.624;-64.282;2023-04-24T04:39:10;11.55;;;6.78;;
59972;SDS011;55298;-36.624;-64.282;2023-04-24T04:41:39;14.73;;;6.72;;
59972;SDS011;55298;-36.624;-64.282;2023-04-24T04:44:07;8.38;;;6.78;;
59972;SDS011;55298;-36.624;-64.282;2023-04-24T04:46:35;13.10;;;7.22;;
59972;SDS011;55298;-36.624;-64.282;2023-04-24T04:49:04;7.07;;;6.35;;
59972;SDS011;55298;-36.624;-64.282;2023-04-24T04:51:31;7.18;;;6.47;;
59972;SDS011;55298;-36.624;-64.282;2023-04-24T04:53:59;9.88;;;6.88;;
59972;SDS011;55298;-36.624;-64.282;2023-04-24T04:56:27;9.00;;;7.20;;
59972;SDS011;55298;-36.624;-64.282;2023-04-24T04:58:55;13.07;;;8.15;;
59972;SDS011;55298;-36.624;-64.282;2023-04-24T05:01:24;8.60;;;6.50;;
59972;SDS011;55298;-36.624;-64.282;2023-04-24T05:03:53;8.52;;;6.88;;
59972;SDS011;55298;-36.624;-64.282;2023-04-24T05:06:21;11.38;;;7.30;;
59972;SDS011;55298;-36.624;-64.282;2023-04-24T05:08:48;11.90;;;7.88;;
59972;SDS011;55298;-36.624;-64.282;2023-04-24T05:11:16;8.63;;;6.85;;
59972;SDS011;55298;-36.624;-64.282;2023-04-24T05:13:44;11.48;;;7.82;;
59972;SDS011;55298;-36.624;-64.282;2023-04-24T05:16:12;10.93;;;6.95;;
59972;SDS011;55298;-36.624;-64.282;2023-04-24T05:18:40;8.77;;;6.80;;
59972;SDS011;55298;-36.624;-64.282;2023-04-24T05:21:08;7.65;;;6.80;;
59972;SDS011;55298;-36.624;-64.282;2023-04-24T05:23:36;8.95;;;7.20;;
59972;SDS011;55298;-36.624;-64.282;2023-04-24T05:26:04;7.22;;;6.55;;
59972;SDS011;55298;-36.624;-64.282;2023-04-24T05:28:33;8.30;;;6.35;;
59972;SDS011;55298;-36.624;-64.282;2023-04-24T05:31:02;7.95;;;6.68;;
59972;SDS011;55298;-36.624;-64.282;2023-04-24T05:33:30;8.43;;;6.78;;
59972;SDS011;55298;-36.624;-64.282;2023-04-24T05:35:58;7.53;;;6.38;;
59972;SDS011;55298;-36.624;-64.282;2023-04-24T05:38:25;7.47;;;6.63;;
59972;SDS011;55298;-36.624;-64.282;2023-04-24T05:40:53;8.38;;;7.05;;
59972;SDS011;55298;-36.624;-64.282;2023-04-24T05:43:21;9.15;;;7.28;;
59972;SDS011;55298;-36.624;-64.282;2023-04-24T05:45:49;7.63;;;6.88;;
59972;SDS011;55298;-36.624;-64.282;2023-04-24T05:48:17;10.05;;;6.68;;
59972;SDS011;55298;-36.624;-64.282;2023-04-24T05:50:44;9.73;;;7.25;;
59972;SDS011;55298;-36.624;-64.282;2023-04-24T05:53:13;12.70;;;6.90;;
59972;SDS011;55298;-36.624;-64.282;2023-04-24T05:55:41;8.65;;;7.00;;
59972;SDS011;55298;-36.624;-64.282;2023-04-24T05:58:09;9.32;;;6.60;;
59972;SDS011;55298;-36.624;-64.282;2023-04-24T06:00:37;10.85;;;7.47;;
59972;SDS011;55298;-36.624;-64.282;2023-04-24T06:03:08;13.60;;;7.07;;
59972;SDS011;55298;-36.624;-64.282;2023-04-24T06:05:35;12.32;;;7.32;;
59972;SDS011;55298;-36.624;-64.282;2023-04-24T06:08:04;7.40;;;5.90;;
59972;SDS011;55298;-36.624;-64.282;2023-04-24T06:10:32;7.65;;;6.38;;
59972;SDS011;55298;-36.624;-64.282;2023-04-24T06:13:00;7.88;;;6.07;;
59972;SDS011;55298;-36.624;-64.282;2023-04-24T06:15:29;11.52;;;6.72;;
59972;SDS011;55298;-36.624;-64.282;2023-04-24T06:17:57;16.00;;;7.50;;
59972;SDS011;55298;-36.624;-64.282;2023-04-24T06:20:25;10.63;;;7.00;;
59972;SDS011;55298;-36.624;-64.282;2023-04-24T06:22:53;7.82;;;6.82;;
59972;SDS011;55298;-36.624;-64.282;2023-04-24T06:25:21;9.25;;;6.90;;
59972;SDS011;55298;-36.624;-64.282;2023-04-24T06:27:50;8.25;;;6.10;;
59972;SDS011;55298;-36.624;-64.282;2023-04-24T06:30:18;12.45;;;6.47;;
59972;SDS011;55298;-36.624;-64.282;2023-04-24T06:32:46;6.95;;;6.22;;
59972;SDS011;55298;-36.624;-64.282;2023-04-24T06:35:14;11.07;;;7.18;;
59972;SDS011;55298;-36.624;-64.282;2023-04-24T06:37:42;6.68;;;6.07;;
59972;SDS011;55298;-36.624;-64.282;2023-04-24T06:40:10;7.03;;;6.25;;
59972;SDS011;55298;-36.624;-64.282;2023-04-24T06:42:38;6.80;;;5.88;;
59972;SDS011;55298;-36.624;-64.282;2023-04-24T06:45:06;7.35;;;6.60;;
59972;SDS011;55298;-36.624;-64.282;2023-04-24T06:47:33;10.05;;;6.93;;
59972;SDS011;55298;-36.624;-64.282;2023-04-24T06:50:01;7.72;;;6.93;;
59972;SDS011;55298;-36.624;-64.282;2023-04-24T06:52:29;7.55;;;6.82;;
59972;SDS011;55298;-36.624;-64.282;2023-04-24T06:55:02;8.05;;;5.57;;
59972;SDS011;55298;-36.624;-64.282;2023-04-24T06:57:31;7.18;;;6.30;;
59972;SDS011;55298;-36.624;-64.282;2023-04-24T06:59:58;10.25;;;6.18;;
59972;SDS011;55298;-36.624;-64.282;2023-04-24T07:02:26;8.73;;;6.30;;
59972;SDS011;55298;-36.624;-64.282;2023-04-24T07:04:54;7.43;;;6.60;;
59972;SDS011;55298;-36.624;-64.282;2023-04-24T07:07:22;6.50;;;5.57;;
59972;SDS011;55298;-36.624;-64.282;2023-04-24T07:09:50;7.78;;;5.80;;
59972;SDS011;55298;-36.624;-64.282;2023-04-24T07:12:18;7.53;;;6.60;;
59972;SDS011;55298;-36.624;-64.282;2023-04-24T07:14:47;7.50;;;5.70;;
59972;SDS011;55298;-36.624;-64.282;2023-04-24T07:17:15;7.65;;;6.53;;
59972;SDS011;55298;-36.624;-64.282;2023-04-24T07:19:43;7.85;;;6.85;;
59972;SDS011;55298;-36.624;-64.282;2023-04-24T07:22:11;7.35;;;6.40;;
59972;SDS011;55298;-36.624;-64.282;2023-04-24T07:24:43;10.63;;;6.28;;
59972;SDS011;55298;-36.624;-64.282;2023-04-24T07:27:11;8.73;;;7.05;;
59972;SDS011;55298;-36.624;-64.282;2023-04-24T07:29:40;7.53;;;6.60;;
59972;SDS011;55298;-36.624;-64.282;2023-04-24T07:32:08;8.48;;;6.13;;
59972;SDS011;55298;-36.624;-64.282;2023-04-24T07:34:36;7.07;;;6.38;;
59972;SDS011;55298;-36.624;-64.282;2023-04-24T07:37:04;7.82;;;6.22;;
59972;SDS011;55298;-36.624;-64.282;2023-04-24T07:39:32;8.73;;;6.70;;
59972;SDS011;55298;-36.624;-64.282;2023-04-24T07:42:00;8.63;;;6.60;;
59972;SDS011;55298;-36.624;-64.282;2023-04-24T07:44:28;8.48;;;7.07;;
59972;SDS011;55298;-36.624;-64.282;2023-04-24T07:46:55;9.55;;;7.40;;
59972;SDS011;55298;-36.624;-64.282;2023-04-24T07:49:24;9.40;;;7.35;;
59972;SDS011;55298;-36.624;-64.282;2023-04-24T07:51:53;8.73;;;7.85;;
59972;SDS011;55298;-36.624;-64.282;2023-04-24T07:54:21;8.35;;;7.30;;
59972;SDS011;55298;-36.624;-64.282;2023-04-24T07:56:49;8.23;;;7.43;;
59972;SDS011;55298;-36.624;-64.282;2023-04-24T07:59:16;7.88;;;7.07;;
59972;SDS011;55298;-36.624;-64.282;2023-04-24T08:01:44;11.10;;;7.35;;
59972;SDS011;55298;-36.624;-64.282;2023-04-24T08:04:12;11.02;;;8.15;;
59972;SDS011;55298;-36.624;-64.282;2023-04-24T08:06:40;10.02;;;7.57;;
59972;SDS011;55298;-36.624;-64.282;2023-04-24T08:09:07;8.82;;;7.95;;
59972;SDS011;55298;-36.624;-64.282;2023-04-24T08:11:35;8.68;;;7.88;;
59972;SDS011;55298;-36.624;-64.282;2023-04-24T08:14:03;9.77;;;7.18;;
59972;SDS011;55298;-36.624;-64.282;2023-04-24T08:16:32;7.05;;;6.45;;
59972;SDS011;55298;-36.624;-64.282;2023-04-24T08:19:00;8.60;;;7.72;;
59972;SDS011;55298;-36.624;-64.282;2023-04-24T08:21:27;9.93;;;6.93;;
59972;SDS011;55298;-36.624;-64.282;2023-04-24T08:23:55;8.82;;;6.93;;
59972;SDS011;55298;-36.624;-64.282;2023-04-24T08:26:23;9.27;;;7.20;;
59972;SDS011;55298;-36.624;-64.282;2023-04-24T08:28:50;8.68;;;7.45;;
59972;SDS011;55298;-36.624;-64.282;2023-04-24T08:31:18;8.75;;;7.95;;
59972;SDS011;55298;-36.624;-64.282;2023-04-24T08:33:46;10.38;;;7.30;;
59972;SDS011;55298;-36.624;-64.282;2023-04-24T08:36:14;12.13;;;7.40;;
59972;SDS011;55298;-36.624;-64.282;2023-04-24T08:38:42;6.82;;;6.25;;
59972;SDS011;55298;-36.624;-64.282;2023-04-24T08:41:12;9.02;;;6.30;;
59972;SDS011;55298;-36.624;-64.282;2023-04-24T08:43:41;11.90;;;7.47;;
59972;SDS011;55298;-36.624;-64.282;2023-04-24T08:46:09;7.78;;;6.85;;
59972;SDS011;55298;-36.624;-64.282;2023-04-24T08:48:39;9.30;;;7.38;;
59972;SDS011;55298;-36.624;-64.282;2023-04-24T08:51:07;8.15;;;7.35;;
59972;SDS011;55298;-36.624;-64.282;2023-04-24T08:53:36;10.73;;;7.68;;
59972;SDS011;55298;-36.624;-64.282;2023-04-24T08:56:04;8.95;;;7.43;;
59972;SDS011;55298;-36.624;-64.282;2023-04-24T08:58:32;7.80;;;7.10;;
59972;SDS011;55298;-36.624;-64.282;2023-04-24T09:01:02;10.43;;;7.20;;
59972;SDS011;55298;-36.624;-64.282;2023-04-24T09:03:31;11.18;;;7.80;;
59972;SDS011;55298;-36.624;-64.282;2023-04-24T09:06:01;10.38;;;8.18;;
59972;SDS011;55298;-36.624;-64.282;2023-04-24T09:08:30;7.95;;;7.18;;
59972;SDS011;55298;-36.624;-64.282;2023-04-24T09:10:59;7.60;;;6.90;;
59972;SDS011;55298;-36.624;-64.282;2023-04-24T09:13:28;9.45;;;7.53;;
59972;SDS011;55298;-36.624;-64.282;2023-04-24T09:15:56;10.82;;;7.68;;
59972;SDS011;55298;-36.624;-64.282;2023-04-24T09:18:26;7.78;;;6.45;;
59972;SDS011;55298;-36.624;-64.282;2023-04-24T09:21:00;10.25;;;9.27;;
59972;SDS011;55298;-36.624;-64.282;2023-04-24T09:23:30;8.82;;;7.10;;
59972;SDS011;55298;-36.624;-64.282;2023-04-24T09:25:59;8.05;;;6.97;;
59972;SDS011;55298;-36.624;-64.282;2023-04-24T09:28:32;7.97;;;7.10;;
59972;SDS011;55298;-36.624;-64.282;2023-04-24T09:31:05;10.05;;;7.75;;
59972;SDS011;55298;-36.624;-64.282;2023-04-24T09:39:00;8.73;;;7.05;;
59972;SDS011;55298;-36.624;-64.282;2023-04-24T09:41:31;8.82;;;7.55;;
59972;SDS011;55298;-36.624;-64.282;2023-04-24T09:44:10;9.30;;;7.68;;
59972;SDS011;55298;-36.624;-64.282;2023-04-24T09:46:41;7.93;;;7.22;;
59972;SDS011;55298;-36.624;-64.282;2023-04-24T09:49:13;11.93;;;8.80;;
59972;SDS011;55298;-36.624;-64.282;2023-04-24T09:51:42;10.90;;;8.70;;
59972;SDS011;55298;-36.624;-64.282;2023-04-24T09:54:14;11.48;;;8.60;;
59972;SDS011;55298;-36.624;-64.282;2023-04-24T09:56:47;9.30;;;7.88;;
59972;SDS011;55298;-36.624;-64.282;2023-04-24T09:59:18;10.68;;;9.07;;
59972;SDS011;55298;-36.624;-64.282;2023-04-24T10:01:47;9.90;;;8.80;;
59972;SDS011;55298;-36.624;-64.282;2023-04-24T10:04:18;11.70;;;8.50;;
59972;SDS011;55298;-36.624;-64.282;2023-04-24T10:06:49;14.40;;;8.98;;
59972;SDS011;55298;-36.624;-64.282;2023-04-24T10:09:23;9.85;;;8.85;;
59972;SDS011;55298;-36.624;-64.282;2023-04-24T10:11:52;10.73;;;9.00;;
59972;SDS011;55298;-36.624;-64.282;2023-04-24T10:14:22;11.02;;;8.38;;
59972;SDS011;55298;-36.624;-64.282;2023-04-24T10:16:53;13.18;;;10.00;;
59972;SDS011;55298;-36.624;-64.282;2023-04-24T10:19:25;10.43;;;8.95;;
59972;SDS011;55298;-36.624;-64.282;2023-04-24T10:21:52;8.73;;;7.90;;
59972;SDS011;55298;-36.624;-64.282;2023-04-24T10:24:22;11.73;;;10.52;;
59972;SDS011;55298;-36.624;-64.282;2023-04-24T10:27:03;12.80;;;9.77;;
59972;SDS011;55298;-36.624;-64.282;2023-04-24T10:29:33;9.32;;;8.27;;
59972;SDS011;55298;-36.624;-64.282;2023-04-24T10:32:06;13.87;;;9.00;;
59972;SDS011;55298;-36.624;-64.282;2023-04-24T10:34:35;19.88;;;9.10;;
59972;SDS011;55298;-36.624;-64.282;2023-04-24T10:37:03;12.25;;;8.88;;
59972;SDS011;55298;-36.624;-64.282;2023-04-24T10:39:31;14.35;;;10.05;;
59972;SDS011;55298;-36.624;-64.282;2023-04-24T10:42:00;12.98;;;10.60;;
59972;SDS011;55298;-36.624;-64.282;2023-04-24T10:44:35;13.38;;;9.07;;
59972;SDS011;55298;-36.624;-64.282;2023-04-24T10:47:04;9.43;;;8.35;;
59972;SDS011;55298;-36.624;-64.282;2023-04-24T10:49:40;8.98;;;8.15;;
59972;SDS011;55298;-36.624;-64.282;2023-04-24T10:52:10;8.82;;;8.05;;
59972;SDS011;55298;-36.624;-64.282;2023-04-24T10:54:46;14.02;;;9.88;;
59972;SDS011;55298;-36.624;-64.282;2023-04-24T10:57:25;12.00;;;9.50;;
59972;SDS011;55298;-36.624;-64.282;2023-04-24T11:02:40;17.10;;;11.25;;
59972;SDS011;55298;-36.624;-64.282;2023-04-24T11:05:16;35.00;;;24.70;;
59972;SDS011;55298;-36.624;-64.282;2023-04-24T11:10:32;16.08;;;10.70;;
59972;SDS011;55298;-36.624;-64.282;2023-04-24T11:13:07;19.40;;;11.50;;
59972;SDS011;55298;-36.624;-64.282;2023-04-24T11:15:42;33.35;;;23.27;;
59972;SDS011;55298;-36.624;-64.282;2023-04-24T11:18:17;17.92;;;12.43;;
59972;SDS011;55298;-36.624;-64.282;2023-04-24T11:21:09;13.77;;;10.75;;
59972;SDS011;55298;-36.624;-64.282;2023-04-24T11:23:39;20.52;;;11.65;;
59972;SDS011;55298;-36.624;-64.282;2023-04-24T11:26:12;17.05;;;11.45;;
59972;SDS011;55298;-36.624;-64.282;2023-04-24T11:29:06;15.98;;;10.38;;
59972;SDS011;55298;-36.624;-64.282;2023-04-24T11:31:43;18.23;;;10.77;;
59972;SDS011;55298;-36.624;-64.282;2023-04-24T11:34:17;19.30;;;10.57;;
59972;SDS011;55298;-36.624;-64.282;2023-04-24T11:36:49;18.02;;;10.10;;
59972;SDS011;55298;-36.624;-64.282;2023-04-24T11:39:21;11.85;;;9.88;;
59972;SDS011;55298;-36.624;-64.282;2023-04-24T11:41:49;17.10;;;9.75;;
59972;SDS011;55298;-36.624;-64.282;2023-04-24T11:44:34;21.95;;;14.98;;
59972;SDS011;55298;-36.624;-64.282;2023-04-24T11:47:05;22.02;;;12.85;;
59972;SDS011;55298;-36.624;-64.282;2023-04-24T11:49:45;19.75;;;11.85;;
59972;SDS011;55298;-36.624;-64.282;2023-04-24T11:52:20;24.98;;;12.25;;
59972;SDS011;55298;-36.624;-64.282;2023-04-24T11:57:55;12.18;;;8.73;;
59972;SDS011;55298;-36.624;-64.282;2023-04-24T12:00:55;16.95;;;9.38;;
59972;SDS011;55298;-36.624;-64.282;2023-04-24T12:03:35;19.08;;;9.18;;
59972;SDS011;55298;-36.624;-64.282;2023-04-24T12:06:19;16.83;;;8.90;;
59972;SDS011;55298;-36.624;-64.282;2023-04-24T12:08:47;24.05;;;10.20;;
59972;SDS011;55298;-36.624;-64.282;2023-04-24T12:11:19;25.70;;;11.68;;
59972;SDS011;55298;-36.624;-64.282;2023-04-24T12:13:50;22.63;;;11.18;;
59972;SDS011;55298;-36.624;-64.282;2023-04-24T12:16:19;11.38;;;9.27;;
59972;SDS011;55298;-36.624;-64.282;2023-04-24T12:18:51;10.95;;;7.82;;
59972;SDS011;55298;-36.624;-64.282;2023-04-24T12:21:25;14.95;;;8.30;;
59972;SDS011;55298;-36.624;-64.282;2023-04-24T12:23:56;10.13;;;7.07;;
59972;SDS011;55298;-36.624;-64.282;2023-04-24T12:26:24;14.15;;;7.93;;
59972;SDS011;55298;-36.624;-64.282;2023-04-24T12:28:54;10.68;;;7.03;;
59972;SDS011;55298;-36.624;-64.282;2023-04-24T12:33:57;15.73;;;7.60;;
59972;SDS011;55298;-36.624;-64.282;2023-04-24T12:36:25;11.00;;;8.45;;
59972;SDS011;55298;-36.624;-64.282;2023-04-24T12:38:54;11.38;;;6.90;;
59972;SDS011;55298;-36.624;-64.282;2023-04-24T12:41:25;13.25;;;10.43;;
59972;SDS011;55298;-36.624;-64.282;2023-04-24T12:43:53;11.43;;;10.23;;
59972;SDS011;55298;-36.624;-64.282;2023-04-24T12:46:22;7.93;;;7.00;;
59972;SDS011;55298;-36.624;-64.282;2023-04-24T12:48:52;10.55;;;7.65;;
59972;SDS011;55298;-36.624;-64.282;2023-04-24T12:51:22;8.70;;;5.43;;
59972;SDS011;55298;-36.624;-64.282;2023-04-24T12:53:53;9.25;;;6.80;;
59972;SDS011;55298;-36.624;-64.282;2023-04-24T12:56:23;12.73;;;6.72;;
59972;SDS011;55298;-36.624;-64.282;2023-04-24T12:58:52;14.90;;;8.10;;
59972;SDS011;55298;-36.624;-64.282;2023-04-24T13:01:25;11.93;;;6.63;;
59972;SDS011;55298;-36.624;-64.282;2023-04-24T13:03:55;10.02;;;7.00;;
59972;SDS011;55298;-36.624;-64.282;2023-04-24T13:06:26;12.60;;;6.68;;
59972;SDS011;55298;-36.624;-64.282;2023-04-24T13:09:00;9.55;;;5.97;;
59972;SDS011;55298;-36.624;-64.282;2023-04-24T13:11:30;13.45;;;7.35;;
59972;SDS011;55298;-36.624;-64.282;2023-04-24T13:13:59;14.10;;;6.50;;
59972;SDS011;55298;-36.624;-64.282;2023-04-24T13:16:32;10.55;;;6.28;;
59972;SDS011;55298;-36.624;-64.282;2023-04-24T13:19:03;12.45;;;6.55;;
59972;SDS011;55298;-36.624;-64.282;2023-04-24T13:21:31;8.57;;;5.90;;
59972;SDS011;55298;-36.624;-64.282;2023-04-24T13:24:02;8.40;;;5.70;;
59972;SDS011;55298;-36.624;-64.282;2023-04-24T13:26:52;12.98;;;6.20;;
59972;SDS011;55298;-36.624;-64.282;2023-04-24T13:29:22;6.70;;;5.93;;
59972;SDS011;55298;-36.624;-64.282;2023-04-24T13:31:51;8.80;;;5.50;;
59972;SDS011;55298;-36.624;-64.282;2023-04-24T13:34:21;8.88;;;5.78;;
59972;SDS011;55298;-36.624;-64.282;2023-04-24T13:36:55;10.63;;;6.03;;
59972;SDS011;55298;-36.624;-64.282;2023-04-24T13:39:24;10.18;;;5.68;;
59972;SDS011;55298;-36.624;-64.282;2023-04-24T13:41:54;7.47;;;4.65;;
59972;SDS011;55298;-36.624;-64.282;2023-04-24T13:44:26;6.45;;;4.85;;
59972;SDS011;55298;-36.624;-64.282;2023-04-24T13:46:56;8.57;;;4.70;;
59972;SDS011;55298;-36.624;-64.282;2023-04-24T13:49:26;9.27;;;5.28;;
59972;SDS011;55298;-36.624;-64.282;2023-04-24T13:51:57;6.43;;;4.63;;
59972;SDS011;55298;-36.624;-64.282;2023-04-24T13:54:33;7.85;;;5.47;;
59972;SDS011;55298;-36.624;-64.282;2023-04-24T13:57:02;10.88;;;5.50;;
59972;SDS011;55298;-36.624;-64.282;2023-04-24T13:59:31;9.30;;;5.43;;
59972;SDS011;55298;-36.624;-64.282;2023-04-24T14:01:59;7.32;;;4.63;;
59972;SDS011;55298;-36.624;-64.282;2023-04-24T14:04:27;7.80;;;5.18;;
59972;SDS011;55298;-36.624;-64.282;2023-04-24T14:06:56;7.10;;;4.65;;
59972;SDS011;55298;-36.624;-64.282;2023-04-24T14:09:28;9.93;;;5.95;;
59972;SDS011;55298;-36.624;-64.282;2023-04-24T14:11:56;11.90;;;5.60;;
59972;SDS011;55298;-36.624;-64.282;2023-04-24T14:14:24;10.50;;;4.93;;
59972;SDS011;55298;-36.624;-64.282;2023-04-24T14:16:53;8.32;;;5.78;;
59972;SDS011;55298;-36.624;-64.282;2023-04-24T14:19:21;11.52;;;5.00;;
59972;SDS011;55298;-36.624;-64.282;2023-04-24T14:21:49;6.97;;;4.45;;
59972;SDS011;55298;-36.624;-64.282;2023-04-24T14:24:23;6.82;;;4.50;;
59972;SDS011;55298;-36.624;-64.282;2023-04-24T14:26:51;6.30;;;4.00;;
59972;SDS011;55298;-36.624;-64.282;2023-04-24T14:29:19;12.40;;;6.95;;
59972;SDS011;55298;-36.624;-64.282;2023-04-24T14:31:56;9.50;;;5.15;;
59972;SDS011;55298;-36.624;-64.282;2023-04-24T14:34:25;11.27;;;5.18;;